sensor_id;sensor_type;location;lat;lon;timestamp;temperature;humidity
56076;DHT22;41951;49.022;12.066;2023-08-12T00:00:19;18.60;99.90
56076;DHT22;41951;49.022;12.066;2023-08-12T00:02:45;18.60;99.90
56076;DHT22;41951;49.022;12.066;2023-08-12T00:05:11;18.60;99.90
56076;DHT22;41951;49.022;12.066;2023-08-12T00:07:38;18.50;99.90
56076;DHT22;41951;49.022;12.066;2023-08-12T00:10:04;18.40;99.90
56076;DHT22;41951;49.022;12.066;2023-08-12T00:12:37;18.30;99.90
56076;DHT22;41951;49.022;12.066;2023-08-12T00:15:04;18.30;99.90
56076;DHT22;41951;49.022;12.066;2023-08-12T00:17:32;18.40;99.90
56076;DHT22;41951;49.022;12.066;2023-08-12T00:19:57;18.40;99.90
56076;DHT22;41951;49.022;12.066;2023-08-12T00:22:23;18.40;99.90
56076;DHT22;41951;49.022;12.066;2023-08-12T00:24:49;18.40;99.90
56076;DHT22;41951;49.022;12.066;2023-08-12T00:27:14;18.40;99.90
56076;DHT22;41951;49.022;12.066;2023-08-12T00:29:40;18.40;99.90
56076;DHT22;41951;49.022;12.066;2023-08-12T00:32:08;18.30;99.90
56076;DHT22;41951;49.022;12.066;2023-08-12T00:34:33;18.30;99.90
56076;DHT22;41951;49.022;12.066;2023-08-12T00:36:59;18.30;99.90
56076;DHT22;41951;49.022;12.066;2023-08-12T00:39:24;18.20;99.90
56076;DHT22;41951;49.022;12.066;2023-08-12T00:41:50;18.10;99.90
56076;DHT22;41951;49.022;12.066;2023-08-12T00:44:16;18.10;99.90
56076;DHT22;41951;49.022;12.066;2023-08-12T00:46:42;18.10;99.90
56076;DHT22;41951;49.022;12.066;2023-08-12T00:49:09;18.00;99.90
56076;DHT22;41951;49.022;12.066;2023-08-12T00:51:35;18.00;99.90
56076;DHT22;41951;49.022;12.066;2023-08-12T00:54:04;17.90;99.90
56076;DHT22;41951;49.022;12.066;2023-08-12T00:56:30;17.90;99.90
56076;DHT22;41951;49.022;12.066;2023-08-12T00:58:57;18.00;99.90
56076;DHT22;41951;49.022;12.066;2023-08-12T01:01:23;17.90;99.90
56076;DHT22;41951;49.022;12.066;2023-08-12T01:03:48;17.90;99.90
56076;DHT22;41951;49.022;12.066;2023-08-12T01:06:14;18.30;99.90
56076;DHT22;41951;49.022;12.066;2023-08-12T01:08:40;17.80;99.90
56076;DHT22;41951;49.022;12.066;2023-08-12T01:11:25;17.80;99.90
56076;DHT22;41951;49.022;12.066;2023-08-12T01:16:34;17.70;99.90
56076;DHT22;41951;49.022;12.066;2023-08-12T01:19:03;17.80;99.90
56076;DHT22;41951;49.022;12.066;2023-08-12T01:21:31;17.70;99.90
56076;DHT22;41951;49.022;12.066;2023-08-12T01:23:58;17.70;99.90
56076;DHT22;41951;49.022;12.066;2023-08-12T01:26:23;17.70;99.90
56076;DHT22;41951;49.022;12.066;2023-08-12T01:28:49;17.70;99.90
56076;DHT22;41951;49.022;12.066;2023-08-12T01:31:21;17.80;99.90
56076;DHT22;41951;49.022;12.066;2023-08-12T01:34:04;17.70;99.90
56076;DHT22;41951;49.022;12.066;2023-08-12T01:36:35;17.60;99.90
56076;DHT22;41951;49.022;12.066;2023-08-12T01:39:01;17.70;99.90
56076;DHT22;41951;49.022;12.066;2023-08-12T01:41:28;17.60;99.90
56076;DHT22;41951;49.022;12.066;2023-08-12T01:43:53;17.60;99.90
56076;DHT22;41951;49.022;12.066;2023-08-12T01:46:19;17.60;99.90
56076;DHT22;41951;49.022;12.066;2023-08-12T01:48:46;17.60;99.90
56076;DHT22;41951;49.022;12.066;2023-08-12T01:51:12;17.60;99.90
56076;DHT22;41951;49.022;12.066;2023-08-12T01:53:37;17.60;99.90
56076;DHT22;41951;49.022;12.066;2023-08-12T01:56:03;17.50;99.90
56076;DHT22;41951;49.022;12.066;2023-08-12T01:58:29;17.50;99.90
56076;DHT22;41951;49.022;12.066;2023-08-12T02:00:54;17.40;99.90
56076;DHT22;41951;49.022;12.066;2023-08-12T02:03:20;17.40;99.90
56076;DHT22;41951;49.022;12.066;2023-08-12T02:05:45;17.40;99.90
56076;DHT22;41951;49.022;12.066;2023-08-12T02:08:11;17.40;99.90
56076;DHT22;41951;49.022;12.066;2023-08-12T02:10:38;17.30;99.90
56076;DHT22;41951;49.022;12.066;2023-08-12T02:13:03;17.30;99.90
56076;DHT22;41951;49.022;12.066;2023-08-12T02:15:29;17.30;99.90
56076;DHT22;41951;49.022;12.066;2023-08-12T02:17:55;17.20;99.90
56076;DHT22;41951;49.022;12.066;2023-08-12T02:20:20;17.10;99.90
56076;DHT22;41951;49.022;12.066;2023-08-12T02:22:46;17.10;99.90
56076;DHT22;41951;49.022;12.066;2023-08-12T02:25:11;17.00;99.90
56076;DHT22;41951;49.022;12.066;2023-08-12T02:27:37;17.00;99.90
56076;DHT22;41951;49.022;12.066;2023-08-12T02:30:03;17.00;99.90
56076;DHT22;41951;49.022;12.066;2023-08-12T02:32:29;17.10;99.90
56076;DHT22;41951;49.022;12.066;2023-08-12T02:34:54;17.10;99.90
56076;DHT22;41951;49.022;12.066;2023-08-12T02:37:20;17.10;99.90
56076;DHT22;41951;49.022;12.066;2023-08-12T02:39:46;17.00;99.90
56076;DHT22;41951;49.022;12.066;2023-08-12T02:42:11;17.00;99.90
56076;DHT22;41951;49.022;12.066;2023-08-12T02:44:37;17.00;99.90
56076;DHT22;41951;49.022;12.066;2023-08-12T02:47:02;17.00;99.90
56076;DHT22;41951;49.022;12.066;2023-08-12T02:49:28;17.00;99.90
56076;DHT22;41951;49.022;12.066;2023-08-12T02:51:53;17.00;99.90
56076;DHT22;41951;49.022;12.066;2023-08-12T02:54:19;16.90;99.90
56076;DHT22;41951;49.022;12.066;2023-08-12T02:56:45;17.00;99.90
56076;DHT22;41951;49.022;12.066;2023-08-12T02:59:10;16.90;99.90
56076;DHT22;41951;49.022;12.066;2023-08-12T03:01:36;16.90;99.90
56076;DHT22;41951;49.022;12.066;2023-08-12T03:04:01;16.80;99.90
56076;DHT22;41951;49.022;12.066;2023-08-12T03:06:27;16.80;99.90
56076;DHT22;41951;49.022;12.066;2023-08-12T03:08:52;16.70;99.90
56076;DHT22;41951;49.022;12.066;2023-08-12T03:11:18;16.70;99.90
56076;DHT22;41951;49.022;12.066;2023-08-12T03:13:45;16.60;99.90
56076;DHT22;41951;49.022;12.066;2023-08-12T03:16:14;16.40;99.90
56076;DHT22;41951;49.022;12.066;2023-08-12T03:18:40;16.40;99.90
56076;DHT22;41951;49.022;12.066;2023-08-12T03:21:07;16.40;99.90
56076;DHT22;41951;49.022;12.066;2023-08-12T03:23:33;16.40;99.90
56076;DHT22;41951;49.022;12.066;2023-08-12T03:25:59;16.50;99.90
56076;DHT22;41951;49.022;12.066;2023-08-12T03:28:24;16.60;99.90
56076;DHT22;41951;49.022;12.066;2023-08-12T03:30:53;16.70;99.90
56076;DHT22;41951;49.022;12.066;2023-08-12T03:33:19;16.70;99.90
56076;DHT22;41951;49.022;12.066;2023-08-12T03:35:48;16.70;99.90
56076;DHT22;41951;49.022;12.066;2023-08-12T03:38:15;16.70;99.90
56076;DHT22;41951;49.022;12.066;2023-08-12T03:40:41;16.70;99.90
56076;DHT22;41951;49.022;12.066;2023-08-12T03:43:07;16.70;99.90
56076;DHT22;41951;49.022;12.066;2023-08-12T03:45:39;16.70;99.90
56076;DHT22;41951;49.022;12.066;2023-08-12T03:48:05;16.70;99.90
56076;DHT22;41951;49.022;12.066;2023-08-12T03:50:33;16.60;99.90
56076;DHT22;41951;49.022;12.066;2023-08-12T03:52:59;16.60;99.90
56076;DHT22;41951;49.022;12.066;2023-08-12T03:55:25;16.60;99.90
56076;DHT22;41951;49.022;12.066;2023-08-12T03:57:51;16.50;99.90
56076;DHT22;41951;49.022;12.066;2023-08-12T04:00:17;16.50;99.90
56076;DHT22;41951;49.022;12.066;2023-08-12T04:02:43;16.50;99.90
56076;DHT22;41951;49.022;12.066;2023-08-12T04:05:08;16.30;99.90
56076;DHT22;41951;49.022;12.066;2023-08-12T04:07:36;16.20;99.90
56076;DHT22;41951;49.022;12.066;2023-08-12T04:10:02;16.00;99.90
56076;DHT22;41951;49.022;12.066;2023-08-12T04:12:28;15.90;99.90
56076;DHT22;41951;49.022;12.066;2023-08-12T04:14:53;15.90;99.90
56076;DHT22;41951;49.022;12.066;2023-08-12T04:17:19;16.00;99.90
56076;DHT22;41951;49.022;12.066;2023-08-12T04:19:45;16.00;99.90
56076;DHT22;41951;49.022;12.066;2023-08-12T04:22:10;16.00;99.90
56076;DHT22;41951;49.022;12.066;2023-08-12T04:24:36;16.10;99.90
56076;DHT22;41951;49.022;12.066;2023-08-12T04:27:01;16.10;99.90
56076;DHT22;41951;49.022;12.066;2023-08-12T04:29:27;16.10;99.90
56076;DHT22;41951;49.022;12.066;2023-08-12T04:31:52;16.10;99.90
56076;DHT22;41951;49.022;12.066;2023-08-12T04:34:18;16.10;99.90
56076;DHT22;41951;49.022;12.066;2023-08-12T04:36:44;16.20;99.90
56076;DHT22;41951;49.022;12.066;2023-08-12T04:39:09;16.20;99.90
56076;DHT22;41951;49.022;12.066;2023-08-12T04:41:35;16.30;99.90
56076;DHT22;41951;49.022;12.066;2023-08-12T04:44:04;16.40;99.90
56076;DHT22;41951;49.022;12.066;2023-08-12T04:46:30;16.40;99.90
56076;DHT22;41951;49.022;12.066;2023-08-12T04:48:55;16.50;99.90
56076;DHT22;41951;49.022;12.066;2023-08-12T04:51:21;16.50;99.90
56076;DHT22;41951;49.022;12.066;2023-08-12T04:53:46;16.50;99.90
56076;DHT22;41951;49.022;12.066;2023-08-12T04:56:12;16.60;99.90
56076;DHT22;41951;49.022;12.066;2023-08-12T04:58:38;16.70;99.90
56076;DHT22;41951;49.022;12.066;2023-08-12T05:01:03;16.70;99.90
56076;DHT22;41951;49.022;12.066;2023-08-12T05:03:29;16.80;99.90
56076;DHT22;41951;49.022;12.066;2023-08-12T05:05:55;16.80;99.90
56076;DHT22;41951;49.022;12.066;2023-08-12T05:08:20;16.90;99.90
56076;DHT22;41951;49.022;12.066;2023-08-12T05:10:49;16.90;99.90
56076;DHT22;41951;49.022;12.066;2023-08-12T05:13:15;16.80;99.90
56076;DHT22;41951;49.022;12.066;2023-08-12T05:15:41;16.90;99.90
56076;DHT22;41951;49.022;12.066;2023-08-12T05:18:06;16.90;99.90
56076;DHT22;41951;49.022;12.066;2023-08-12T05:20:32;16.90;99.90
56076;DHT22;41951;49.022;12.066;2023-08-12T05:22:58;16.90;99.90
56076;DHT22;41951;49.022;12.066;2023-08-12T05:25:23;17.00;99.90
56076;DHT22;41951;49.022;12.066;2023-08-12T05:27:50;17.10;99.90
56076;DHT22;41951;49.022;12.066;2023-08-12T05:30:15;17.10;99.90
56076;DHT22;41951;49.022;12.066;2023-08-12T05:32:41;17.20;99.90
56076;DHT22;41951;49.022;12.066;2023-08-12T05:35:07;17.30;99.90
56076;DHT22;41951;49.022;12.066;2023-08-12T05:37:32;17.40;99.90
56076;DHT22;41951;49.022;12.066;2023-08-12T05:39:58;17.50;99.90
56076;DHT22;41951;49.022;12.066;2023-08-12T05:42:23;17.50;99.90
56076;DHT22;41951;49.022;12.066;2023-08-12T05:44:49;17.60;99.90
56076;DHT22;41951;49.022;12.066;2023-08-12T05:47:14;17.70;99.90
56076;DHT22;41951;49.022;12.066;2023-08-12T05:49:40;17.70;99.90
56076;DHT22;41951;49.022;12.066;2023-08-12T05:52:06;17.80;99.90
56076;DHT22;41951;49.022;12.066;2023-08-12T05:54:31;17.90;99.90
56076;DHT22;41951;49.022;12.066;2023-08-12T05:56:58;17.90;99.90
56076;DHT22;41951;49.022;12.066;2023-08-12T05:59:23;18.00;99.90
56076;DHT22;41951;49.022;12.066;2023-08-12T06:01:49;18.10;99.90
56076;DHT22;41951;49.022;12.066;2023-08-12T06:04:14;18.10;99.90
56076;DHT22;41951;49.022;12.066;2023-08-12T06:06:40;18.20;99.90
56076;DHT22;41951;49.022;12.066;2023-08-12T06:09:05;18.20;99.90
56076;DHT22;41951;49.022;12.066;2023-08-12T06:11:31;18.20;99.90
56076;DHT22;41951;49.022;12.066;2023-08-12T06:13:56;18.30;99.90
56076;DHT22;41951;49.022;12.066;2023-08-12T06:16:22;18.40;99.90
56076;DHT22;41951;49.022;12.066;2023-08-12T06:18:47;18.50;99.90
56076;DHT22;41951;49.022;12.066;2023-08-12T06:21:13;18.50;99.90
56076;DHT22;41951;49.022;12.066;2023-08-12T06:23:39;18.60;99.90
56076;DHT22;41951;49.022;12.066;2023-08-12T06:26:04;18.70;99.90
56076;DHT22;41951;49.022;12.066;2023-08-12T06:28:30;18.80;99.90
56076;DHT22;41951;49.022;12.066;2023-08-12T06:30:55;19.10;99.90
56076;DHT22;41951;49.022;12.066;2023-08-12T06:33:21;18.90;99.90
56076;DHT22;41951;49.022;12.066;2023-08-12T06:35:46;19.00;99.90
56076;DHT22;41951;49.022;12.066;2023-08-12T06:38:12;19.10;99.90
56076;DHT22;41951;49.022;12.066;2023-08-12T06:40:39;19.10;99.90
56076;DHT22;41951;49.022;12.066;2023-08-12T06:43:04;19.20;99.90
56076;DHT22;41951;49.022;12.066;2023-08-12T06:45:30;19.30;99.90
56076;DHT22;41951;49.022;12.066;2023-08-12T06:47:55;19.40;99.90
56076;DHT22;41951;49.022;12.066;2023-08-12T06:50:21;19.40;99.90
56076;DHT22;41951;49.022;12.066;2023-08-12T06:52:46;19.60;99.90
56076;DHT22;41951;49.022;12.066;2023-08-12T06:55:12;19.70;99.90
56076;DHT22;41951;49.022;12.066;2023-08-12T06:57:38;19.70;99.90
56076;DHT22;41951;49.022;12.066;2023-08-12T07:00:03;19.80;99.90
56076;DHT22;41951;49.022;12.066;2023-08-12T07:02:30;19.80;99.90
56076;DHT22;41951;49.022;12.066;2023-08-12T07:04:56;20.00;99.90
56076;DHT22;41951;49.022;12.066;2023-08-12T07:07:21;20.00;99.90
56076;DHT22;41951;49.022;12.066;2023-08-12T07:09:47;20.10;99.90
56076;DHT22;41951;49.022;12.066;2023-08-12T07:12:13;20.20;99.90
56076;DHT22;41951;49.022;12.066;2023-08-12T07:14:38;20.30;99.90
56076;DHT22;41951;49.022;12.066;2023-08-12T07:17:04;20.40;99.90
56076;DHT22;41951;49.022;12.066;2023-08-12T07:19:29;20.60;99.90
56076;DHT22;41951;49.022;12.066;2023-08-12T07:21:55;20.60;99.90
56076;DHT22;41951;49.022;12.066;2023-08-12T07:24:20;20.70;99.90
56076;DHT22;41951;49.022;12.066;2023-08-12T07:26:46;20.70;99.90
56076;DHT22;41951;49.022;12.066;2023-08-12T07:29:11;20.70;99.90
56076;DHT22;41951;49.022;12.066;2023-08-12T07:31:37;20.80;99.90
56076;DHT22;41951;49.022;12.066;2023-08-12T07:34:03;20.90;99.90
56076;DHT22;41951;49.022;12.066;2023-08-12T07:36:28;21.00;99.90
56076;DHT22;41951;49.022;12.066;2023-08-12T07:38:54;21.20;99.90
56076;DHT22;41951;49.022;12.066;2023-08-12T07:41:19;21.10;99.90
56076;DHT22;41951;49.022;12.066;2023-08-12T07:43:45;21.40;99.90
56076;DHT22;41951;49.022;12.066;2023-08-12T07:46:11;21.40;99.90
56076;DHT22;41951;49.022;12.066;2023-08-12T07:48:36;21.50;99.90
56076;DHT22;41951;49.022;12.066;2023-08-12T07:51:03;21.50;99.90
56076;DHT22;41951;49.022;12.066;2023-08-12T07:53:29;21.60;99.90
56076;DHT22;41951;49.022;12.066;2023-08-12T07:55:54;21.70;99.90
56076;DHT22;41951;49.022;12.066;2023-08-12T07:58:20;21.80;99.90
56076;DHT22;41951;49.022;12.066;2023-08-12T08:00:45;21.90;99.90
56076;DHT22;41951;49.022;12.066;2023-08-12T08:03:11;22.00;99.90
56076;DHT22;41951;49.022;12.066;2023-08-12T08:05:40;22.00;99.90
56076;DHT22;41951;49.022;12.066;2023-08-12T08:08:06;22.10;99.90
56076;DHT22;41951;49.022;12.066;2023-08-12T08:10:32;22.20;99.90
56076;DHT22;41951;49.022;12.066;2023-08-12T08:12:57;22.30;99.90
56076;DHT22;41951;49.022;12.066;2023-08-12T08:15:23;22.30;99.90
56076;DHT22;41951;49.022;12.066;2023-08-12T08:17:48;22.40;99.90
56076;DHT22;41951;49.022;12.066;2023-08-12T08:20:14;22.40;99.90
56076;DHT22;41951;49.022;12.066;2023-08-12T08:22:39;22.40;99.90
56076;DHT22;41951;49.022;12.066;2023-08-12T08:25:05;22.50;99.90
56076;DHT22;41951;49.022;12.066;2023-08-12T08:27:31;22.60;99.90
56076;DHT22;41951;49.022;12.066;2023-08-12T08:29:57;22.60;99.90
56076;DHT22;41951;49.022;12.066;2023-08-12T08:32:23;22.60;99.90
56076;DHT22;41951;49.022;12.066;2023-08-12T08:34:48;22.70;99.90
56076;DHT22;41951;49.022;12.066;2023-08-12T08:37:14;22.90;99.90
56076;DHT22;41951;49.022;12.066;2023-08-12T08:39:40;23.20;99.90
56076;DHT22;41951;49.022;12.066;2023-08-12T08:42:05;23.40;99.90
56076;DHT22;41951;49.022;12.066;2023-08-12T08:44:33;23.70;99.90
56076;DHT22;41951;49.022;12.066;2023-08-12T08:46:59;23.90;99.90
56076;DHT22;41951;49.022;12.066;2023-08-12T08:49:25;24.00;99.90
56076;DHT22;41951;49.022;12.066;2023-08-12T08:51:51;24.00;99.90
56076;DHT22;41951;49.022;12.066;2023-08-12T08:54:19;24.10;99.90
56076;DHT22;41951;49.022;12.066;2023-08-12T08:56:45;24.10;99.90
56076;DHT22;41951;49.022;12.066;2023-08-12T08:59:11;24.10;99.90
56076;DHT22;41951;49.022;12.066;2023-08-12T09:01:36;24.20;99.90
56076;DHT22;41951;49.022;12.066;2023-08-12T09:04:03;24.30;99.90
56076;DHT22;41951;49.022;12.066;2023-08-12T09:06:31;24.30;99.90
56076;DHT22;41951;49.022;12.066;2023-08-12T09:08:58;24.40;99.90
56076;DHT22;41951;49.022;12.066;2023-08-12T09:11:25;24.40;99.90
56076;DHT22;41951;49.022;12.066;2023-08-12T09:13:52;24.50;99.90
56076;DHT22;41951;49.022;12.066;2023-08-12T09:16:18;24.60;99.90
56076;DHT22;41951;49.022;12.066;2023-08-12T09:18:44;24.50;99.90
56076;DHT22;41951;49.022;12.066;2023-08-12T09:21:09;24.40;99.90
56076;DHT22;41951;49.022;12.066;2023-08-12T09:23:40;24.50;99.90
56076;DHT22;41951;49.022;12.066;2023-08-12T09:26:32;24.50;99.90
56076;DHT22;41951;49.022;12.066;2023-08-12T09:28:59;24.50;99.90
56076;DHT22;41951;49.022;12.066;2023-08-12T09:31:27;24.50;99.90
56076;DHT22;41951;49.022;12.066;2023-08-12T09:33:57;24.50;99.90
56076;DHT22;41951;49.022;12.066;2023-08-12T09:36:23;24.60;99.90
56076;DHT22;41951;49.022;12.066;2023-08-12T09:38:49;24.60;99.90
56076;DHT22;41951;49.022;12.066;2023-08-12T09:41:15;24.70;99.90
56076;DHT22;41951;49.022;12.066;2023-08-12T09:43:42;24.70;99.90
56076;DHT22;41951;49.022;12.066;2023-08-12T09:46:11;24.80;99.90
56076;DHT22;41951;49.022;12.066;2023-08-12T09:48:38;24.90;99.90
56076;DHT22;41951;49.022;12.066;2023-08-12T09:51:03;25.00;99.90
56076;DHT22;41951;49.022;12.066;2023-08-12T09:53:30;25.00;99.90
56076;DHT22;41951;49.022;12.066;2023-08-12T09:56:08;25.10;99.90
56076;DHT22;41951;49.022;12.066;2023-08-12T09:58:36;25.10;99.90
56076;DHT22;41951;49.022;12.066;2023-08-12T10:01:05;25.10;99.90
56076;DHT22;41951;49.022;12.066;2023-08-12T10:03:33;25.10;99.90
56076;DHT22;41951;49.022;12.066;2023-08-12T10:06:00;25.20;99.90
56076;DHT22;41951;49.022;12.066;2023-08-12T10:08:27;25.20;99.90
56076;DHT22;41951;49.022;12.066;2023-08-12T10:10:53;25.20;99.90
56076;DHT22;41951;49.022;12.066;2023-08-12T10:13:20;25.30;99.90
56076;DHT22;41951;49.022;12.066;2023-08-12T10:15:46;25.40;99.90
56076;DHT22;41951;49.022;12.066;2023-08-12T10:18:12;25.40;99.90
56076;DHT22;41951;49.022;12.066;2023-08-12T10:20:39;25.40;99.90
56076;DHT22;41951;49.022;12.066;2023-08-12T10:23:05;25.30;99.90
56076;DHT22;41951;49.022;12.066;2023-08-12T10:25:32;25.30;99.90
56076;DHT22;41951;49.022;12.066;2023-08-12T10:28:00;25.10;99.90
56076;DHT22;41951;49.022;12.066;2023-08-12T10:30:28;25.10;99.90
56076;DHT22;41951;49.022;12.066;2023-08-12T10:32:54;25.00;99.90
56076;DHT22;41951;49.022;12.066;2023-08-12T10:35:20;24.90;99.90
56076;DHT22;41951;49.022;12.066;2023-08-12T10:37:49;24.90;99.90
56076;DHT22;41951;49.022;12.066;2023-08-12T10:40:22;24.80;99.90
56076;DHT22;41951;49.022;12.066;2023-08-12T10:42:49;24.80;99.90
56076;DHT22;41951;49.022;12.066;2023-08-12T10:45:17;24.80;99.90
56076;DHT22;41951;49.022;12.066;2023-08-12T10:47:43;24.80;99.90
56076;DHT22;41951;49.022;12.066;2023-08-12T10:50:24;24.80;99.90
56076;DHT22;41951;49.022;12.066;2023-08-12T10:52:53;24.90;99.90
56076;DHT22;41951;49.022;12.066;2023-08-12T10:55:24;25.00;99.90
56076;DHT22;41951;49.022;12.066;2023-08-12T10:57:52;25.10;99.90
56076;DHT22;41951;49.022;12.066;2023-08-12T11:00:25;25.20;99.90
56076;DHT22;41951;49.022;12.066;2023-08-12T11:02:53;25.30;99.90
56076;DHT22;41951;49.022;12.066;2023-08-12T11:05:20;25.40;99.90
56076;DHT22;41951;49.022;12.066;2023-08-12T11:07:46;25.60;99.90
56076;DHT22;41951;49.022;12.066;2023-08-12T11:10:17;25.80;99.90
56076;DHT22;41951;49.022;12.066;2023-08-12T11:15:42;26.10;99.90
56076;DHT22;41951;49.022;12.066;2023-08-12T11:18:10;26.20;99.90
56076;DHT22;41951;49.022;12.066;2023-08-12T11:20:36;26.30;99.90
56076;DHT22;41951;49.022;12.066;2023-08-12T11:23:03;26.30;99.90
56076;DHT22;41951;49.022;12.066;2023-08-12T11:25:31;26.30;99.90
56076;DHT22;41951;49.022;12.066;2023-08-12T11:27:57;26.30;99.90
56076;DHT22;41951;49.022;12.066;2023-08-12T11:30:23;26.30;99.90
56076;DHT22;41951;49.022;12.066;2023-08-12T11:32:51;26.50;99.90
56076;DHT22;41951;49.022;12.066;2023-08-12T11:35:18;26.50;99.90
56076;DHT22;41951;49.022;12.066;2023-08-12T11:37:46;26.60;99.90
56076;DHT22;41951;49.022;12.066;2023-08-12T11:40:13;26.70;99.90
56076;DHT22;41951;49.022;12.066;2023-08-12T11:42:43;26.70;99.90
56076;DHT22;41951;49.022;12.066;2023-08-12T11:45:10;26.70;99.90
56076;DHT22;41951;49.022;12.066;2023-08-12T11:47:37;26.80;99.90
56076;DHT22;41951;49.022;12.066;2023-08-12T11:50:04;26.90;99.90
56076;DHT22;41951;49.022;12.066;2023-08-12T11:52:30;27.00;99.90
56076;DHT22;41951;49.022;12.066;2023-08-12T11:54:56;27.10;99.90
56076;DHT22;41951;49.022;12.066;2023-08-12T11:57:22;27.20;99.90
56076;DHT22;41951;49.022;12.066;2023-08-12T11:59:49;27.30;99.90
56076;DHT22;41951;49.022;12.066;2023-08-12T12:02:15;27.30;99.90
56076;DHT22;41951;49.022;12.066;2023-08-12T12:04:44;27.40;99.90
56076;DHT22;41951;49.022;12.066;2023-08-12T12:07:23;27.50;99.90
56076;DHT22;41951;49.022;12.066;2023-08-12T12:09:54;27.50;99.90
56076;DHT22;41951;49.022;12.066;2023-08-12T12:12:23;27.60;99.90
56076;DHT22;41951;49.022;12.066;2023-08-12T12:14:51;27.70;99.90
56076;DHT22;41951;49.022;12.066;2023-08-12T12:17:20;27.70;99.90
56076;DHT22;41951;49.022;12.066;2023-08-12T12:19:46;27.80;99.90
56076;DHT22;41951;49.022;12.066;2023-08-12T12:22:12;28.00;99.90
56076;DHT22;41951;49.022;12.066;2023-08-12T12:24:47;28.10;99.90
56076;DHT22;41951;49.022;12.066;2023-08-12T12:27:13;28.30;99.90
56076;DHT22;41951;49.022;12.066;2023-08-12T12:29:39;28.50;99.90
56076;DHT22;41951;49.022;12.066;2023-08-12T12:32:05;28.60;99.90
56076;DHT22;41951;49.022;12.066;2023-08-12T12:34:31;28.70;99.90
56076;DHT22;41951;49.022;12.066;2023-08-12T12:36:56;28.90;99.90
56076;DHT22;41951;49.022;12.066;2023-08-12T12:39:22;29.10;99.90
56076;DHT22;41951;49.022;12.066;2023-08-12T12:41:50;29.10;99.90
56076;DHT22;41951;49.022;12.066;2023-08-12T12:44:16;29.10;99.90
56076;DHT22;41951;49.022;12.066;2023-08-12T12:46:41;29.30;99.90
56076;DHT22;41951;49.022;12.066;2023-08-12T12:49:07;29.40;99.90
56076;DHT22;41951;49.022;12.066;2023-08-12T12:51:32;29.50;99.90
56076;DHT22;41951;49.022;12.066;2023-08-12T12:53:58;29.70;99.90
56076;DHT22;41951;49.022;12.066;2023-08-12T12:56:24;29.90;99.90
56076;DHT22;41951;49.022;12.066;2023-08-12T12:58:49;29.90;99.90
56076;DHT22;41951;49.022;12.066;2023-08-12T13:01:15;30.00;99.90
56076;DHT22;41951;49.022;12.066;2023-08-12T13:03:40;30.10;99.60
56076;DHT22;41951;49.022;12.066;2023-08-12T13:06:06;30.00;99.70
56076;DHT22;41951;49.022;12.066;2023-08-12T13:08:31;30.10;98.40
56076;DHT22;41951;49.022;12.066;2023-08-12T13:10:58;30.20;99.40
56076;DHT22;41951;49.022;12.066;2023-08-12T13:13:24;30.30;99.40
56076;DHT22;41951;49.022;12.066;2023-08-12T13:15:50;30.30;98.70
56076;DHT22;41951;49.022;12.066;2023-08-12T13:18:16;30.60;98.90
56076;DHT22;41951;49.022;12.066;2023-08-12T13:20:41;30.50;97.80
56076;DHT22;41951;49.022;12.066;2023-08-12T13:23:07;30.60;97.80
56076;DHT22;41951;49.022;12.066;2023-08-12T13:25:33;30.90;97.70
56076;DHT22;41951;49.022;12.066;2023-08-12T13:28:00;31.10;97.50
56076;DHT22;41951;49.022;12.066;2023-08-12T13:30:26;31.30;97.30
56076;DHT22;41951;49.022;12.066;2023-08-12T13:32:52;31.40;96.80
56076;DHT22;41951;49.022;12.066;2023-08-12T13:35:17;31.60;96.40
56076;DHT22;41951;49.022;12.066;2023-08-12T13:37:43;31.80;96.40
56076;DHT22;41951;49.022;12.066;2023-08-12T13:40:09;32.00;95.40
56076;DHT22;41951;49.022;12.066;2023-08-12T13:42:37;32.10;94.30
56076;DHT22;41951;49.022;12.066;2023-08-12T13:45:02;32.20;93.60
56076;DHT22;41951;49.022;12.066;2023-08-12T13:47:28;32.30;93.00
56076;DHT22;41951;49.022;12.066;2023-08-12T13:49:54;32.20;92.00
56076;DHT22;41951;49.022;12.066;2023-08-12T13:52:19;32.30;92.00
56076;DHT22;41951;49.022;12.066;2023-08-12T13:54:45;32.40;91.90
56076;DHT22;41951;49.022;12.066;2023-08-12T13:57:10;32.40;91.80
56076;DHT22;41951;49.022;12.066;2023-08-12T13:59:37;32.10;90.70
56076;DHT22;41951;49.022;12.066;2023-08-12T14:02:02;31.70;90.30
56076;DHT22;41951;49.022;12.066;2023-08-12T14:04:28;31.40;90.70
56076;DHT22;41951;49.022;12.066;2023-08-12T14:06:54;31.30;90.70
56076;DHT22;41951;49.022;12.066;2023-08-12T14:09:19;31.10;90.90
56076;DHT22;41951;49.022;12.066;2023-08-12T14:11:45;31.20;91.20
56076;DHT22;41951;49.022;12.066;2023-08-12T14:14:11;31.40;91.10
56076;DHT22;41951;49.022;12.066;2023-08-12T14:16:36;31.60;90.50
56076;DHT22;41951;49.022;12.066;2023-08-12T14:19:02;31.90;91.00
56076;DHT22;41951;49.022;12.066;2023-08-12T14:21:28;32.20;91.00
56076;DHT22;41951;49.022;12.066;2023-08-12T14:23:53;32.70;90.80
56076;DHT22;41951;49.022;12.066;2023-08-12T14:26:19;33.10;89.40
56076;DHT22;41951;49.022;12.066;2023-08-12T14:28:44;33.30;87.90
56076;DHT22;41951;49.022;12.066;2023-08-12T14:31:10;33.20;87.30
56076;DHT22;41951;49.022;12.066;2023-08-12T14:33:36;33.00;87.60
56076;DHT22;41951;49.022;12.066;2023-08-12T14:36:03;32.30;87.00
56076;DHT22;41951;49.022;12.066;2023-08-12T14:38:29;31.70;86.30
56076;DHT22;41951;49.022;12.066;2023-08-12T14:40:54;31.10;86.50
56076;DHT22;41951;49.022;12.066;2023-08-12T14:43:20;31.00;87.80
56076;DHT22;41951;49.022;12.066;2023-08-12T14:45:46;30.80;87.80
56076;DHT22;41951;49.022;12.066;2023-08-12T14:48:12;30.70;88.30
56076;DHT22;41951;49.022;12.066;2023-08-12T14:50:38;30.60;89.10
56076;DHT22;41951;49.022;12.066;2023-08-12T14:53:04;30.40;89.30
56076;DHT22;41951;49.022;12.066;2023-08-12T14:55:30;30.20;89.70
56076;DHT22;41951;49.022;12.066;2023-08-12T14:57:55;30.00;90.10
56076;DHT22;41951;49.022;12.066;2023-08-12T15:00:21;29.90;90.40
56076;DHT22;41951;49.022;12.066;2023-08-12T15:02:46;29.80;90.70
56076;DHT22;41951;49.022;12.066;2023-08-12T15:05:12;29.80;91.10
56076;DHT22;41951;49.022;12.066;2023-08-12T15:07:38;29.70;91.50
56076;DHT22;41951;49.022;12.066;2023-08-12T15:10:04;29.60;91.80
56076;DHT22;41951;49.022;12.066;2023-08-12T15:12:30;29.50;92.10
56076;DHT22;41951;49.022;12.066;2023-08-12T15:14:56;29.40;92.40